Time;durP1;ratioP1;P1;durP2;ratioP2;P2;SDS_P1;SDS_P2;PMS_P1;PMS_P2;Temp;Humidity;BMP_temperature;BMP_pressure;BME280_temperature;BME280_humidity;BME280_pressure;Samples;Min_cycle;Max_cycle;Signal;HPM_P1;HPM_P2
2023/04/29 00:01:52;;;;;;;1.70;1.38;;;19.20;52.00;;;;;;5073949;28;20245;-85
2023/04/29 00:04:19;;;;;;;2.85;1.30;;;19.20;52.00;;;;;;5073977;28;20289;-84
2023/04/29 00:06:48;;;;;;;1.70;1.60;;;19.20;52.20;;;;;;5073250;28;20229;-85
2023/04/29 00:09:15;;;;;;;1.88;1.30;;;19.20;52.20;;;;;;5073247;28;20198;-85
2023/04/29 00:11:43;;;;;;;1.80;1.45;;;19.20;52.20;;;;;;5073392;28;20218;-84
2023/04/29 00:14:10;;;;;;;1.42;1.33;;;19.20;52.20;;;;;;5072769;28;20215;-84
2023/04/29 00:16:37;;;;;;;1.60;1.50;;;19.10;52.20;;;;;;5072891;28;20289;-85
2023/04/29 00:19:04;;;;;;;1.48;1.38;;;19.20;52.40;;;;;;5073405;28;20289;-85
2023/04/29 00:21:32;;;;;;;2.03;1.50;;;19.10;52.30;;;;;;5072946;28;20261;-85
2023/04/29 00:24:00;;;;;;;1.40;1.30;;;19.10;52.30;;;;;;5073747;28;20250;-85
2023/04/29 00:26:28;;;;;;;4.18;1.38;;;19.10;52.40;;;;;;5072670;28;20268;-85
2023/04/29 00:28:55;;;;;;;2.90;1.40;;;19.10;52.30;;;;;;5073103;28;20249;-85
2023/04/29 00:31:22;;;;;;;1.90;1.40;;;19.10;52.30;;;;;;5073375;28;20309;-84
2023/04/29 00:33:50;;;;;;;2.13;1.35;;;19.10;52.40;;;;;;5072960;28;20198;-85
2023/04/29 00:36:17;;;;;;;3.13;1.60;;;19.10;52.40;;;;;;5072695;28;20226;-85
2023/04/29 00:38:44;;;;;;;1.90;1.42;;;19.10;52.30;;;;;;5056259;28;20611;-85
2023/04/29 00:41:12;;;;;;;1.55;1.45;;;19.10;52.40;;;;;;5072621;28;20218;-85
2023/04/29 00:43:40;;;;;;;4.28;1.52;;;19.10;52.40;;;;;;5072683;28;20278;-84
2023/04/29 00:46:07;;;;;;;1.75;1.30;;;19.10;52.40;;;;;;5058262;28;20190;-84
2023/04/29 00:48:35;;;;;;;1.50;1.35;;;19.10;52.40;;;;;;5076530;28;20684;-84
2023/04/29 00:51:02;;;;;;;3.58;1.70;;;19.00;52.30;;;;;;5076977;28;20794;-84
2023/04/29 00:53:30;;;;;;;1.65;1.23;;;19.00;52.30;;;;;;5077743;28;20206;-84
2023/04/29 00:55:57;;;;;;;1.55;1.20;;;19.00;52.40;;;;;;5077541;28;20261;-84
2023/04/29 00:58:31;;;;;;;1.40;1.30;;;19.00;52.30;;;;;;5088151;28;20191;-85
2023/04/29 01:01:00;;;;;;;2.90;1.30;;;19.00;52.40;;;;;;5094212;28;20214;-84
2023/04/29 01:03:27;;;;;;;4.00;1.33;;;19.00;52.40;;;;;;5076656;28;20536;-85
2023/04/29 01:05:56;;;;;;;1.67;1.20;;;19.00;52.40;;;;;;5076979;28;20203;-85
2023/04/29 01:08:41;;;;;;;2.65;1.40;;;19.00;52.40;;;;;;5076404;28;20210;-84
2023/04/29 01:11:10;;;;;;;1.00;1.00;;;19.00;52.40;;;;;;5076480;28;20583;-84
2023/04/29 01:13:43;;;;;;;1.02;1.02;;;19.00;52.40;;;;;;5076043;28;20203;-85
2023/04/29 01:16:11;;;;;;;1.38;1.17;;;19.00;52.40;;;;;;5076284;28;20215;-84
2023/04/29 01:18:42;;;;;;;1.02;0.93;;;19.00;52.40;;;;;;5076348;28;20213;-84
2023/04/29 01:21:10;;;;;;;1.63;1.17;;;18.90;52.30;;;;;;5077106;28;20279;-84
2023/04/29 01:23:39;;;;;;;3.17;1.17;;;19.00;52.40;;;;;;5059752;28;20194;-84
2023/04/29 01:26:07;;;;;;;1.00;1.00;;;19.00;52.40;;;;;;5059421;28;20199;-84
2023/04/29 01:28:55;;;;;;;2.67;1.15;;;18.90;52.40;;;;;;5077509;28;20201;-84
2023/04/29 01:31:25;;;;;;;2.05;1.00;;;18.90;52.40;;;;;;5075867;28;20590;-84
2023/04/29 01:33:58;;;;;;;2.45;1.10;;;19.00;52.50;;;;;;5076241;28;20202;-84
2023/04/29 01:36:29;;;;;;;1.10;1.00;;;18.90;52.40;;;;;;5075607;28;20719;-84
2023/04/29 01:39:03;;;;;;;1.30;1.20;;;18.90;52.40;;;;;;5076913;28;20195;-85
2023/04/29 01:44:34;;;;;;;1.88;1.10;;;18.90;52.40;;;;;;5302741;22;20268;-68
2023/04/29 01:47:02;;;;;;;1.95;1.10;;;18.90;52.40;;;;;;5034866;28;20318;-68
2023/04/29 01:49:45;;;;;;;1.27;1.20;;;18.90;52.40;;;;;;5035432;28;20250;-68
2023/04/29 01:52:12;;;;;;;1.23;1.13;;;18.90;52.30;;;;;;5034697;28;20199;-68
2023/04/29 01:54:43;;;;;;;1.52;1.00;;;18.90;52.40;;;;;;5034869;28;20203;-68
2023/04/29 01:57:10;;;;;;;3.10;1.10;;;18.90;52.40;;;;;;5033752;28;20212;-68
2023/04/29 02:00:04;;;;;;;1.77;1.20;;;18.80;52.20;;;;;;5012611;28;20200;-68
2023/04/29 02:02:45;;;;;;;1.10;1.10;;;18.80;52.30;;;;;;5035341;28;20275;-68
2023/04/29 02:05:38;;;;;;;1.00;1.00;;;18.80;52.30;;;;;;5034668;28;20246;-68
2023/04/29 02:08:06;;;;;;;2.38;1.20;;;18.80;52.20;;;;;;5034449;28;20319;-68
2023/04/29 02:10:39;;;;;;;1.10;1.10;;;18.80;52.30;;;;;;5034404;28;20199;-68
2023/04/29 02:13:25;;;;;;;1.20;1.10;;;18.80;52.30;;;;;;5034652;28;20199;-68
2023/04/29 02:15:53;;;;;;;3.30;1.48;;;18.80;52.30;;;;;;5034270;28;20200;-68
2023/04/29 02:18:20;;;;;;;2.03;1.20;;;18.80;52.30;;;;;;5034173;28;20266;-68
2023/04/29 02:20:50;;;;;;;1.20;1.10;;;18.80;52.30;;;;;;5034530;28;20681;-67
2023/04/29 02:23:17;;;;;;;1.60;1.10;;;18.80;52.30;;;;;;5034016;28;20200;-68
2023/04/29 02:25:46;;;;;;;1.70;1.30;;;18.80;52.30;;;;;;5034182;28;20203;-68
2023/04/29 02:28:13;;;;;;;4.72;1.13;;;18.80;52.20;;;;;;5034262;28;20231;-68
2023/04/29 02:30:41;;;;;;;1.83;1.23;;;18.70;52.20;;;;;;5034469;28;20704;-68
2023/04/29 02:33:08;;;;;;;1.70;1.10;;;18.80;52.90;;;;;;5034411;28;20199;-68
2023/04/29 02:35:36;;;;;;;3.17;1.20;;;18.70;52.20;;;;;;5034013;28;20261;-68
2023/04/29 02:38:03;;;;;;;2.53;1.00;;;18.70;52.20;;;;;;5033780;28;20653;-68
2023/04/29 02:40:30;;;;;;;1.05;0.93;;;18.70;52.20;;;;;;5033902;28;20200;-68
2023/04/29 02:43:01;;;;;;;2.08;1.00;;;18.70;52.20;;;;;;5033798;28;20627;-68
2023/04/29 02:45:28;;;;;;;1.50;1.08;;;18.70;52.20;;;;;;5033680;28;20196;-68
2023/04/29 02:47:56;;;;;;;2.85;1.00;;;18.70;52.20;;;;;;5034613;28;20299;-68
2023/04/29 02:50:24;;;;;;;1.73;1.20;;;18.70;52.20;;;;;;5033636;28;20727;-67
2023/04/29 02:52:51;;;;;;;1.60;1.10;;;18.70;52.20;;;;;;5033540;28;20246;-68
2023/04/29 02:55:18;;;;;;;1.58;1.10;;;18.70;52.20;;;;;;5034686;28;20196;-69
2023/04/29 02:57:46;;;;;;;2.85;1.38;;;18.60;52.10;;;;;;5033690;28;20595;-68
2023/04/29 03:00:15;;;;;;;2.88;1.10;;;18.60;52.10;;;;;;5033752;28;20196;-68
2023/04/29 03:02:42;;;;;;;2.47;1.33;;;18.70;52.20;;;;;;5033830;28;20230;-68
2023/04/29 03:05:10;;;;;;;1.42;1.08;;;18.60;52.10;;;;;;5033523;28;20192;-68
2023/04/29 03:07:37;;;;;;;1.65;1.00;;;18.60;52.20;;;;;;5033391;28;20247;-68
2023/04/29 03:10:06;;;;;;;3.00;1.10;;;18.60;52.10;;;;;;5032393;28;20294;-68
2023/04/29 03:12:36;;;;;;;1.10;1.00;;;18.60;52.10;;;;;;5033769;28;20216;-68
2023/04/29 03:15:04;;;;;;;1.15;1.05;;;18.60;52.10;;;;;;5032999;28;20196;-68
2023/04/29 03:17:32;;;;;;;2.67;1.00;;;18.60;52.10;;;;;;5033340;28;20212;-68
2023/04/29 03:20:00;;;;;;;1.80;1.00;;;18.60;52.10;;;;;;5033150;28;20196;-68
2023/04/29 03:22:27;;;;;;;2.15;1.20;;;18.60;52.00;;;;;;5033469;28;20210;-68
2023/04/29 03:24:54;;;;;;;1.10;1.10;;;18.60;52.00;;;;;;5033024;28;20196;-68
2023/04/29 03:27:22;;;;;;;1.92;1.10;;;18.60;52.00;;;;;;5033397;28;20230;-68
2023/04/29 03:29:49;;;;;;;2.33;1.05;;;18.60;52.00;;;;;;5032987;28;20200;-68
2023/04/29 03:32:16;;;;;;;2.30;1.00;;;18.60;52.00;;;;;;5032879;28;20204;-67
2023/04/29 03:34:46;;;;;;;1.00;1.00;;;18.70;52.00;;;;;;5032791;28;20246;-68
2023/04/29 03:37:30;;;;;;;1.50;1.10;;;18.70;52.00;;;;;;5033073;28;20223;-68
2023/04/29 03:40:13;;;;;;;1.75;1.13;;;18.70;51.80;;;;;;5033056;28;20200;-68
2023/04/29 03:42:41;;;;;;;1.58;0.90;;;18.70;51.80;;;;;;5032708;28;20212;-68
2023/04/29 03:45:11;;;;;;;1.10;1.00;;;18.80;51.80;;;;;;5033911;28;20275;-68
2023/04/29 03:47:39;;;;;;;1.77;1.20;;;18.80;51.60;;;;;;5032418;28;20766;-68
2023/04/29 03:50:09;;;;;;;2.38;1.00;;;18.80;51.60;;;;;;5032973;28;20238;-68
2023/04/29 03:52:36;;;;;;;3.85;1.15;;;18.80;51.40;;;;;;5032856;28;20199;-68
2023/04/29 03:55:10;;;;;;;1.40;1.00;;;18.80;51.40;;;;;;5033132;28;20206;-68
2023/04/29 03:57:37;;;;;;;1.30;1.20;;;18.80;51.40;;;;;;5033473;28;20216;-68
2023/04/29 04:00:05;;;;;;;1.48;1.02;;;18.80;51.40;;;;;;5033171;28;20659;-68
2023/04/29 04:02:40;;;;;;;1.33;1.13;;;18.80;51.40;;;;;;5034375;28;20188;-69
2023/04/29 04:05:10;;;;;;;1.15;0.88;;;18.80;51.40;;;;;;5034845;28;20223;-68
2023/04/29 04:07:39;;;;;;;1.35;1.00;;;18.80;51.40;;;;;;5033595;28;20575;-68
2023/04/29 04:10:34;;;;;;;2.10;1.10;;;18.80;51.40;;;;;;5034034;28;20211;-68
2023/04/29 04:13:06;;;;;;;1.73;0.90;;;18.80;51.40;;;;;;5033404;28;20210;-68
2023/04/29 04:15:33;;;;;;;1.27;1.17;;;18.80;51.40;;;;;;5032395;28;20219;-67
2023/04/29 04:18:00;;;;;;;1.05;1.05;;;18.70;51.40;;;;;;5032320;28;20216;-68
2023/04/29 04:20:29;;;;;;;2.17;1.10;;;18.70;51.30;;;;;;5031928;28;20226;-68
2023/04/29 04:22:56;;;;;;;2.58;0.98;;;18.70;51.40;;;;;;5032403;28;20287;-68
2023/04/29 04:25:29;;;;;;;1.10;1.08;;;18.80;51.40;;;;;;5032762;28;20200;-68
2023/04/29 04:28:05;;;;;;;4.03;1.17;;;18.70;51.30;;;;;;5032262;28;20230;-68
2023/04/29 04:31:02;;;;;;;1.17;1.10;;;18.80;51.40;;;;;;5040912;23;20693;-84
2023/04/29 04:33:30;;;;;;;3.05;1.10;;;18.70;51.40;;;;;;5031989;28;20215;-84
2023/04/29 04:36:00;;;;;;;3.05;1.10;;;18.80;51.30;;;;;;5016970;28;20287;-84
2023/04/29 04:38:27;;;;;;;0.80;0.80;;;18.80;51.30;;;;;;5033178;28;20199;-85
2023/04/29 04:40:55;;;;;;;1.38;1.08;;;18.80;51.30;;;;;;5033830;28;20191;-84
2023/04/29 04:43:28;;;;;;;1.05;1.05;;;18.80;51.30;;;;;;5033190;28;20311;-84
2023/04/29 04:45:56;;;;;;;2.83;1.20;;;18.80;51.20;;;;;;5034237;28;20199;-84
2023/04/29 04:48:23;;;;;;;1.00;1.00;;;18.80;51.20;;;;;;5033249;28;20228;-84
2023/04/29 04:50:52;;;;;;;1.33;1.00;;;18.80;51.20;;;;;;5017410;28;20259;-84
2023/04/29 04:53:21;;;;;;;1.30;1.10;;;18.80;51.20;;;;;;5016843;28;20266;-83
2023/04/29 04:55:55;;;;;;;2.50;1.08;;;18.80;51.20;;;;;;5034058;28;20191;-84
2023/04/29 04:58:25;;;;;;;1.52;1.05;;;18.80;51.20;;;;;;5033364;28;20692;-83
2023/04/29 05:00:53;;;;;;;1.30;1.20;;;18.80;51.10;;;;;;5017023;28;20192;-84
2023/04/29 05:03:20;;;;;;;0.70;0.70;;;18.80;51.00;;;;;;5033221;28;20220;-84
2023/04/29 05:05:53;;;;;;;1.55;1.30;;;18.80;51.10;;;;;;5033323;28;20203;-84
2023/04/29 05:08:22;;;;;;;1.30;1.20;;;18.90;51.10;;;;;;5033597;28;20228;-84
2023/04/29 05:10:49;;;;;;;2.50;1.05;;;18.90;51.10;;;;;;5033596;28;20231;-85
2023/04/29 05:13:20;;;;;;;1.10;1.10;;;18.90;51.00;;;;;;5033462;28;20765;-85
2023/04/29 05:15:48;;;;;;;1.27;1.17;;;18.90;51.00;;;;;;5032845;28;20207;-84
2023/04/29 05:18:20;;;;;;;2.42;1.15;;;18.90;51.10;;;;;;5033152;28;20262;-85
2023/04/29 05:20:50;;;;;;;1.33;1.10;;;18.90;51.10;;;;;;5032871;28;20192;-84
2023/04/29 05:23:17;;;;;;;1.35;1.20;;;18.90;51.70;;;;;;5033192;28;20230;-84
2023/04/29 05:25:47;;;;;;;1.27;1.20;;;18.90;51.10;;;;;;5016362;28;20196;-84
2023/04/29 05:28:17;;;;;;;1.42;1.23;;;18.90;51.10;;;;;;5033113;28;20204;-84
2023/04/29 05:30:44;;;;;;;3.85;1.40;;;19.00;51.20;;;;;;5032713;28;20223;-85
2023/04/29 05:33:12;;;;;;;2.45;1.17;;;19.00;51.10;;;;;;5034985;28;20219;-85
2023/04/29 05:35:39;;;;;;;1.25;1.15;;;19.00;51.20;;;;;;5036456;28;20291;-84
2023/04/29 05:38:07;;;;;;;1.42;1.10;;;19.00;51.20;;;;;;5036684;28;20197;-85
2023/04/29 05:40:40;;;;;;;3.08;1.10;;;19.00;51.20;;;;;;5036609;28;20211;-85
2023/04/29 05:43:38;;;;;;;1.00;1.00;;;19.00;51.20;;;;;;5018629;28;20222;-85
2023/04/29 05:46:06;;;;;;;1.45;1.25;;;19.00;51.20;;;;;;5035700;28;20226;-85
2023/04/29 05:48:33;;;;;;;1.80;1.50;;;19.10;51.30;;;;;;5035648;28;20252;-85
2023/04/29 05:51:01;;;;;;;1.17;1.10;;;19.10;51.40;;;;;;5035785;28;20233;-85
2023/04/29 05:53:27;;;;;;;1.73;1.10;;;19.10;51.30;;;;;;5035480;28;20250;-85
2023/04/29 05:55:54;;;;;;;1.40;1.30;;;19.10;51.50;;;;;;5035295;28;20203;-85
2023/04/29 05:58:22;;;;;;;1.45;1.35;;;19.10;51.50;;;;;;5035563;28;20196;-85
2023/04/29 06:00:51;;;;;;;1.20;1.20;;;19.20;51.60;;;;;;5035443;28;20227;-84
2023/04/29 06:03:22;;;;;;;1.88;1.20;;;19.20;51.60;;;;;;5035536;28;20220;-85
2023/04/29 06:05:56;;;;;;;1.17;1.17;;;19.30;51.50;;;;;;5036104;28;20608;-85
2023/04/29 06:08:49;;;;;;;1.60;1.10;;;19.30;51.40;;;;;;5030295;28;20227;-85
2023/04/29 06:11:21;;;;;;;2.45;2.25;;;19.40;51.20;;;;;;5019697;28;20226;-85
2023/04/29 06:13:48;;;;;;;3.08;2.05;;;19.40;51.30;;;;;;5035583;28;20593;-85
2023/04/29 06:16:17;;;;;;;5.43;3.47;;;19.50;51.10;;;;;;5035995;28;20196;-85
2023/04/29 06:18:44;;;;;;;2.53;2.33;;;19.50;51.00;;;;;;5035171;28;20191;-85
2023/04/29 06:21:14;;;;;;;2.00;1.90;;;19.60;50.90;;;;;;5034670;28;20286;-85
2023/04/29 06:23:42;;;;;;;2.10;1.50;;;19.70;50.80;;;;;;5034740;28;20306;-85
2023/04/29 06:26:16;;;;;;;1.13;1.13;;;19.70;50.70;;;;;;5034814;28;20180;-85
2023/04/29 06:28:43;;;;;;;1.65;1.20;;;19.80;50.50;;;;;;5034998;28;20220;-85
2023/04/29 06:31:11;;;;;;;1.08;1.08;;;19.90;50.50;;;;;;5034454;28;20214;-85
2023/04/29 06:33:39;;;;;;;1.30;1.20;;;20.00;50.80;;;;;;5034430;28;20218;-85
2023/04/29 06:36:06;;;;;;;1.50;1.40;;;20.00;50.10;;;;;;5034507;28;20227;-85
2023/04/29 06:38:36;;;;;;;2.33;1.27;;;20.10;50.10;;;;;;5036495;28;20262;-85
2023/04/29 06:41:42;;;;;;;2.15;1.10;;;20.10;50.00;;;;;;4994637;28;20193;-85
2023/04/29 06:44:40;;;;;;;1.00;1.00;;;20.20;49.90;;;;;;4979399;28;20196;-85
2023/04/29 06:47:33;;;;;;;1.40;1.30;;;20.20;50.00;;;;;;5027892;28;20228;-85
2023/04/29 06:50:12;;;;;;;1.40;1.30;;;20.20;49.90;;;;;;5035381;28;20350;-85
2023/04/29 06:52:40;;;;;;;1.08;1.08;;;20.30;49.80;;;;;;5035952;28;20234;-85
2023/04/29 06:55:07;;;;;;;1.23;1.13;;;20.40;49.60;;;;;;5035033;28;20200;-85
2023/04/29 06:57:35;;;;;;;1.35;1.25;;;20.60;49.60;;;;;;5035903;28;20207;-86
2023/04/29 07:00:03;;;;;;;1.20;1.20;;;20.70;49.10;;;;;;5035349;28;20219;-85
2023/04/29 07:02:31;;;;;;;1.23;1.20;;;20.80;48.90;;;;;;5034432;28;20236;-85
2023/04/29 07:04:58;;;;;;;1.48;1.30;;;20.80;49.10;;;;;;5034164;28;20290;-86
2023/04/29 07:07:27;;;;;;;1.20;1.20;;;20.80;49.10;;;;;;5017867;28;20203;-85
2023/04/29 07:09:55;;;;;;;1.25;1.15;;;20.70;49.00;;;;;;5033979;28;20215;-85
2023/04/29 07:12:22;;;;;;;1.20;1.20;;;20.70;48.90;;;;;;5034245;28;20227;-84
2023/04/29 07:14:53;;;;;;;1.27;1.20;;;20.70;48.90;;;;;;5018200;28;20293;-84
2023/04/29 07:17:20;;;;;;;1.05;1.05;;;20.70;49.00;;;;;;5033789;28;20258;-84
2023/04/29 07:19:48;;;;;;;1.55;1.38;;;20.70;49.10;;;;;;5033795;28;20196;-84
2023/04/29 07:22:14;;;;;;;1.63;1.02;;;20.70;49.20;;;;;;5034020;28;20286;-85
2023/04/29 07:24:43;;;;;;;0.90;0.90;;;20.60;49.10;;;;;;5017055;28;20700;-85
2023/04/29 07:27:10;;;;;;;1.30;1.13;;;20.60;49.20;;;;;;5033661;28;20625;-85
2023/04/29 07:29:39;;;;;;;1.00;1.00;;;20.60;49.20;;;;;;5033324;28;20227;-85
2023/04/29 07:32:06;;;;;;;1.00;1.00;;;20.60;49.40;;;;;;5033718;28;20572;-85
2023/04/29 07:34:36;;;;;;;1.00;1.00;;;20.60;49.10;;;;;;5017524;28;20279;-85
2023/04/29 07:37:03;;;;;;;0.95;0.95;;;20.60;49.50;;;;;;5033697;28;20208;-85
2023/04/29 07:39:30;;;;;;;1.70;1.20;;;20.60;49.50;;;;;;5033343;28;20662;-86
2023/04/29 07:42:00;;;;;;;1.17;1.15;;;20.60;49.10;;;;;;5033438;28;20195;-85
2023/04/29 07:44:27;;;;;;;0.95;0.95;;;20.60;49.10;;;;;;5033352;28;20200;-86
2023/04/29 07:46:54;;;;;;;1.10;1.10;;;20.80;49.00;;;;;;5033565;28;20639;-86
2023/04/29 07:49:22;;;;;;;1.88;1.30;;;20.80;48.90;;;;;;5033475;28;20220;-86
2023/04/29 07:51:49;;;;;;;1.20;1.10;;;20.80;48.80;;;;;;5034751;28;20202;-86
2023/04/29 07:54:17;;;;;;;0.93;0.93;;;20.90;48.70;;;;;;5033002;28;20221;-86
2023/04/29 07:56:44;;;;;;;1.20;1.17;;;21.00;49.30;;;;;;5032993;28;20200;-86
2023/04/29 07:59:13;;;;;;;1.05;1.05;;;20.90;48.60;;;;;;5033527;28;20676;-86
2023/04/29 08:01:41;;;;;;;1.08;1.02;;;20.90;48.40;;;;;;5033430;28;20196;-86
2023/04/29 08:04:08;;;;;;;1.30;1.20;;;21.00;48.50;;;;;;5033655;28;20216;-86
2023/04/29 08:06:45;;;;;;;1.40;1.30;;;20.90;48.50;;;;;;5018065;28;20203;-86
2023/04/29 08:09:12;;;;;;;1.20;1.10;;;21.00;48.60;;;;;;5033233;28;20216;-86
2023/04/29 08:11:41;;;;;;;1.00;1.00;;;20.90;48.40;;;;;;5032807;28;20195;-86
2023/04/29 08:14:13;;;;;;;1.05;1.05;;;20.90;48.40;;;;;;5033457;28;20258;-85
2023/04/29 08:16:40;;;;;;;1.10;1.10;;;20.90;48.50;;;;;;5032696;28;20200;-85
2023/04/29 08:19:07;;;;;;;1.17;1.10;;;20.90;48.40;;;;;;5032803;28;20192;-85
2023/04/29 08:21:34;;;;;;;1.05;1.05;;;20.90;48.40;;;;;;5032774;28;20195;-85
2023/04/29 08:24:02;;;;;;;1.17;1.10;;;20.90;48.40;;;;;;5033031;28;20234;-85
2023/04/29 08:26:29;;;;;;;1.33;1.17;;;20.90;48.60;;;;;;5033234;28;20196;-85
2023/04/29 08:28:56;;;;;;;1.10;1.10;;;21.00;48.50;;;;;;5032742;28;20709;-85
2023/04/29 08:31:26;;;;;;;0.80;0.80;;;20.90;48.40;;;;;;5033229;28;20704;-86
2023/04/29 08:33:53;;;;;;;1.00;1.00;;;20.90;48.60;;;;;;5032790;28;20266;-85
2023/04/29 08:36:20;;;;;;;1.00;1.00;;;20.90;48.70;;;;;;5032531;28;20716;-85
2023/04/29 08:38:47;;;;;;;1.10;0.80;;;20.90;48.60;;;;;;5032784;28;20196;-86
2023/04/29 08:41:15;;;;;;;1.38;1.23;;;20.90;48.50;;;;;;5032694;28;20231;-85
2023/04/29 08:43:42;;;;;;;1.27;1.17;;;20.90;48.50;;;;;;5033067;28;20216;-85
2023/04/29 08:46:10;;;;;;;0.90;0.90;;;21.00;48.20;;;;;;5032871;28;20250;-85
2023/04/29 08:48:39;;;;;;;1.00;1.00;;;21.00;48.10;;;;;;5032355;28;20207;-85
2023/04/29 08:51:07;;;;;;;1.23;1.13;;;21.10;48.00;;;;;;5016468;28;20254;-85
2023/04/29 08:53:34;;;;;;;1.08;1.08;;;21.10;47.90;;;;;;5016745;28;20216;-85
2023/04/29 08:56:04;;;;;;;1.05;1.05;;;21.10;47.80;;;;;;5032692;28;20753;-85
2023/04/29 08:58:32;;;;;;;1.00;0.95;;;21.10;47.80;;;;;;5032637;28;20646;-85
2023/04/29 09:00:59;;;;;;;1.00;1.00;;;21.10;47.80;;;;;;5032733;28;20298;-85
2023/04/29 09:03:29;;;;;;;1.40;1.30;;;21.10;47.70;;;;;;5033522;28;20216;-85
2023/04/29 09:06:00;;;;;;;1.15;1.15;;;21.10;47.80;;;;;;5033197;28;20200;-85
2023/04/29 09:08:26;;;;;;;1.30;1.20;;;21.10;47.80;;;;;;5036617;28;20322;-85
2023/04/29 09:10:54;;;;;;;1.25;1.20;;;21.10;47.80;;;;;;5037358;28;20219;-85
2023/04/29 09:13:25;;;;;;;1.17;1.17;;;21.10;47.80;;;;;;5037069;28;20238;-85
2023/04/29 09:15:52;;;;;;;1.08;1.08;;;21.10;47.80;;;;;;5037158;28;20306;-85
2023/04/29 09:18:41;;;;;;;1.10;1.10;;;21.10;47.90;;;;;;5037414;28;20254;-85
2023/04/29 09:21:15;;;;;;;1.05;1.05;;;21.10;47.90;;;;;;5036437;28;20204;-85
2023/04/29 09:23:42;;;;;;;1.10;1.00;;;21.10;48.40;;;;;;5036546;28;20219;-85
2023/04/29 09:26:09;;;;;;;1.27;1.17;;;21.10;47.70;;;;;;5037151;28;20275;-85
2023/04/29 09:28:38;;;;;;;1.10;1.10;;;21.10;47.60;;;;;;5019957;28;20235;-85
2023/04/29 09:31:07;;;;;;;1.25;1.15;;;21.20;47.60;;;;;;5035820;28;20246;-85
2023/04/29 09:33:49;;;;;;;1.98;1.20;;;21.20;47.60;;;;;;5036051;28;20593;-85
2023/04/29 09:36:35;;;;;;;1.08;1.08;;;21.20;47.60;;;;;;5036625;28;20195;-85
2023/04/29 09:39:02;;;;;;;1.17;1.08;;;21.20;47.60;;;;;;5036199;28;20246;-85
2023/04/29 09:41:29;;;;;;;1.17;1.17;;;21.30;47.80;;;;;;5019848;28;20250;-85
2023/04/29 09:44:04;;;;;;;1.30;1.20;;;21.30;47.80;;;;;;5037165;28;20208;-85
2023/04/29 09:46:32;;;;;;;1.55;1.10;;;21.20;47.70;;;;;;5036799;28;20187;-85
2023/04/29 09:48:59;;;;;;;1.15;1.15;;;21.30;47.60;;;;;;5036128;28;20231;-85
2023/04/29 09:51:31;;;;;;;1.25;1.15;;;21.20;47.40;;;;;;5036079;28;20219;-85
2023/04/29 09:53:59;;;;;;;1.00;1.00;;;21.30;47.40;;;;;;5035691;28;20311;-85
2023/04/29 09:56:29;;;;;;;1.52;1.00;;;21.40;47.10;;;;;;5035403;28;20278;-85
2023/04/29 09:58:56;;;;;;;1.10;1.10;;;21.60;47.00;;;;;;5035533;28;20210;-85
2023/04/29 10:01:24;;;;;;;1.38;1.10;;;21.70;46.80;;;;;;5035211;28;20211;-86
2023/04/29 10:03:52;;;;;;;1.40;1.30;;;21.80;46.70;;;;;;5035233;28;20278;-85
2023/04/29 10:06:19;;;;;;;1.45;1.33;;;21.80;46.60;;;;;;5035190;28;20203;-85
2023/04/29 10:08:48;;;;;;;0.90;0.90;;;21.80;46.50;;;;;;5035015;28;20204;-85
2023/04/29 10:11:15;;;;;;;1.17;1.08;;;21.80;46.40;;;;;;5034718;28;20274;-85
2023/04/29 10:13:43;;;;;;;1.00;1.00;;;21.90;46.40;;;;;;5035180;28;20620;-85
2023/04/29 10:16:15;;;;;;;0.73;0.73;;;21.90;46.40;;;;;;5035157;28;20196;-85
2023/04/29 10:18:43;;;;;;;1.00;1.00;;;21.90;46.30;;;;;;5035190;28;20573;-85
2023/04/29 10:21:11;;;;;;;1.08;0.82;;;22.00;46.10;;;;;;5034962;28;20196;-85
2023/04/29 10:23:38;;;;;;;1.00;1.00;;;22.10;46.10;;;;;;5018792;28;20266;-85
2023/04/29 10:26:07;;;;;;;0.93;0.93;;;22.10;46.00;;;;;;5034877;28;20323;-85
2023/04/29 10:28:34;;;;;;;1.25;1.20;;;22.20;46.00;;;;;;5034658;28;20223;-85
2023/04/29 10:31:02;;;;;;;1.00;1.00;;;22.20;45.90;;;;;;5034584;28;20296;-85
2023/04/29 10:33:31;;;;;;;0.90;0.90;;;22.20;45.90;;;;;;5035069;28;20243;-85
2023/04/29 10:35:59;;;;;;;0.80;0.80;;;22.30;45.80;;;;;;5034616;28;20203;-85
2023/04/29 10:38:28;;;;;;;0.90;0.90;;;22.20;45.50;;;;;;5034664;28;20239;-85
2023/04/29 10:40:55;;;;;;;1.00;0.98;;;22.30;45.50;;;;;;5018157;28;20254;-85
2023/04/29 10:43:25;;;;;;;1.00;1.00;;;22.30;45.50;;;;;;5034514;28;20219;-86
2023/04/29 10:46:16;;;;;;;1.05;1.02;;;22.40;45.60;;;;;;5034863;28;20204;-85
2023/04/29 10:48:43;;;;;;;1.00;1.00;;;22.30;45.40;;;;;;5034545;28;20196;-85
2023/04/29 10:51:11;;;;;;;0.90;0.90;;;22.30;45.50;;;;;;5034597;28;20212;-86
2023/04/29 10:54:01;;;;;;;1.10;1.10;;;22.30;45.50;;;;;;5035181;28;20216;-85
2023/04/29 10:56:39;;;;;;;1.10;1.10;;;22.30;45.50;;;;;;5034576;28;20199;-85
2023/04/29 10:59:12;;;;;;;0.80;0.80;;;22.30;45.60;;;;;;5034672;28;20298;-86
2023/04/29 11:01:43;;;;;;;1.30;0.88;;;22.30;45.60;;;;;;5034207;28;20228;-85
2023/04/29 11:04:11;;;;;;;0.93;0.93;;;22.30;45.60;;;;;;5037261;28;20557;-86
2023/04/29 11:06:43;;;;;;;0.88;0.88;;;22.30;45.60;;;;;;5034658;28;20295;-86
2023/04/29 11:09:13;;;;;;;0.80;0.80;;;22.30;45.50;;;;;;5035302;28;20196;-85
2023/04/29 11:11:57;;;;;;;0.90;0.90;;;22.40;45.60;;;;;;5034976;28;20196;-86
2023/04/29 11:14:27;;;;;;;0.73;0.73;;;22.40;45.40;;;;;;5034322;28;20196;-86
2023/04/29 11:16:56;;;;;;;0.82;0.82;;;22.40;45.20;;;;;;5034154;28;20650;-85
2023/04/29 11:19:24;;;;;;;1.10;0.77;;;22.50;45.20;;;;;;5034128;28;20196;-85
2023/04/29 11:22:12;;;;;;;0.70;0.70;;;22.50;45.10;;;;;;5033923;28;20303;-86
2023/04/29 11:24:50;;;;;;;0.90;0.90;;;22.50;45.00;;;;;;5033933;28;20200;-85
2023/04/29 11:27:18;;;;;;;0.80;0.80;;;22.60;44.90;;;;;;5034458;28;20295;-85
2023/04/29 11:29:48;;;;;;;1.00;1.00;;;22.60;44.80;;;;;;5033326;28;20262;-86
2023/04/29 11:32:15;;;;;;;1.42;0.90;;;22.60;44.80;;;;;;5034668;28;20278;-86
2023/04/29 11:34:42;;;;;;;0.98;0.90;;;22.60;44.80;;;;;;5033938;28;20192;-85
2023/04/29 11:37:10;;;;;;;1.10;1.00;;;22.70;44.80;;;;;;5034878;28;20200;-86
2023/04/29 11:39:37;;;;;;;1.00;0.90;;;22.60;44.70;;;;;;5034756;28;20196;-85
2023/04/29 11:42:05;;;;;;;0.90;0.90;;;22.60;44.60;;;;;;5018891;28;20382;-86
2023/04/29 11:44:34;;;;;;;1.15;1.00;;;22.60;44.70;;;;;;5033947;28;20199;-85
2023/04/29 11:47:04;;;;;;;0.90;0.90;;;22.60;44.60;;;;;;5034309;28;20208;-86
2023/04/29 11:49:32;;;;;;;0.90;0.90;;;22.70;44.60;;;;;;5033903;28;20203;-85
2023/04/29 11:51:59;;;;;;;0.90;0.90;;;22.70;44.50;;;;;;5017651;28;20210;-86
2023/04/29 11:54:27;;;;;;;1.00;1.00;;;22.70;44.40;;;;;;5033764;28;20202;-85
2023/04/29 11:56:54;;;;;;;0.85;0.85;;;22.70;44.40;;;;;;5037761;28;20211;-85
2023/04/29 11:59:22;;;;;;;1.15;1.05;;;22.70;44.40;;;;;;5054803;28;20230;-86
2023/04/29 12:01:49;;;;;;;0.85;0.85;;;22.80;44.50;;;;;;5042742;28;20647;-86
2023/04/29 12:04:18;;;;;;;0.85;0.85;;;22.80;44.50;;;;;;5034911;28;20188;-86
2023/04/29 12:06:46;;;;;;;1.00;1.00;;;22.70;44.40;;;;;;5034364;28;20204;-86
2023/04/29 12:09:14;;;;;;;0.90;0.90;;;22.70;44.50;;;;;;5035529;28;20559;-86
2023/04/29 12:11:42;;;;;;;0.80;0.80;;;22.70;44.40;;;;;;5033824;28;20322;-85
2023/04/29 12:14:09;;;;;;;1.35;1.25;;;22.70;44.50;;;;;;5033441;28;20714;-86
2023/04/29 12:16:36;;;;;;;1.33;1.08;;;22.70;44.60;;;;;;5002876;28;20208;-82
2023/04/29 12:19:04;;;;;;;1.83;1.70;;;22.70;44.70;;;;;;5036539;28;20199;-84
2023/04/29 12:21:34;;;;;;;1.50;1.40;;;22.60;45.10;;;;;;5035530;28;20204;-85
2023/04/29 12:24:02;;;;;;;3.38;2.13;;;22.50;44.60;;;;;;5018934;28;20678;-83
2023/04/29 12:26:31;;;;;;;3.10;2.55;;;22.50;45.30;;;;;;5034243;28;20200;-85
2023/04/29 12:28:59;;;;;;;3.17;2.72;;;22.40;46.40;;;;;;5033727;28;20666;-85
2023/04/29 12:31:32;;;;;;;2.65;2.42;;;22.30;46.20;;;;;;5033835;28;20274;-85
2023/04/29 12:34:00;;;;;;;2.72;2.22;;;22.20;46.70;;;;;;5034033;28;20219;-85
2023/04/29 12:36:28;;;;;;;2.55;2.20;;;22.10;47.40;;;;;;5033184;28;20291;-84
2023/04/29 12:38:56;;;;;;;4.68;2.20;;;22.00;47.70;;;;;;5033409;28;20210;-85
2023/04/29 12:41:36;;;;;;;2.22;2.03;;;22.00;47.60;;;;;;5034831;28;20196;-84
2023/04/29 12:44:04;;;;;;;3.45;2.22;;;22.00;47.40;;;;;;5037215;28;20260;-85
2023/04/29 12:46:34;;;;;;;2.30;2.10;;;22.00;47.30;;;;;;5021598;28;20251;-84
2023/04/29 12:49:02;;;;;;;3.97;2.40;;;22.10;47.10;;;;;;5037218;28;20202;-85
2023/04/29 12:51:30;;;;;;;3.03;2.33;;;22.10;47.30;;;;;;5037387;28;20211;-85
2023/04/29 12:54:00;;;;;;;2.20;2.00;;;22.10;47.20;;;;;;5037620;28;20585;-85
2023/04/29 12:56:27;;;;;;;2.25;2.13;;;22.20;47.40;;;;;;5037461;28;20677;-85
2023/04/29 12:58:54;;;;;;;2.53;2.03;;;22.20;47.50;;;;;;5037427;28;20196;-84
2023/04/29 13:01:22;;;;;;;1.90;1.80;;;22.20;47.20;;;;;;5038308;28;20203;-85
2023/04/29 13:03:50;;;;;;;2.50;2.30;;;22.20;47.20;;;;;;5036507;28;20211;-85
2023/04/29 13:06:17;;;;;;;3.28;2.30;;;22.30;47.10;;;;;;5037052;28;20200;-84